Main page
METAR-TAF:

METAR-TAF

Airports :

Bauru, São Paulo, Brazil

Bauru Airport

latitude: 22-19S, longitude: 049-04W, elevation: 590 m

Current weather observation

The report was made 16 hours and 26 minutes ago, at 07:00 UTC
Wind 5 kt from the East
Temperature 17°C
Humidity 100%
Pressure 1018 hPa
Visibility: 5000 m
Few clouds at a height of 500 ft
Overcast at a height of 10000 ft
mist

METAR: SBBU 170700Z 09005KT 5000 BR FEW005 OVC100 17/17 Q1018

Time: 20:26 (23:26 UTC)

Forecast

The report was made 7 hours and 56 minutes ago, at 15:30 UTC
Forecast valid from 17 at 18 UTC to 18 at 06 UTC
Wind 6 kt from the East/Southeast
Visibility 10 km or more
Scattered clouds at a height of 3000 ft
Becoming
from 18 at 04 UTC to 18 at 06 UTC
Visibility: 6000 m
rain

TAF: SBBU 171530Z 1718/1806 11006KT 9999 SCT030 TX23/1718Z TN18/1806Z BECMG 1804/1806 6000 RA RMK PDN

Weather observations and forecasts of more than 4000 airports (METAR and TAF reports).

The available stations are represented by yellow and red dots on the map.

Hover mouse over dot to see the name of the station.

Then click to see weather observations and forecasts.

To change the map : click on the green buttons with a black cross to zoom in, on the green button with a dash to zoom out, or on the green arrows for adjacent maps.


METAR-TAF: